Hlavní strana
METAR-TAF:

METAR-TAF

Letiště :

Umeå, Švédsko

zeměpisná šířka: 63-48N, zeměpisná délka: 020-17E, výška: 7 m

Aktuální stav počasí

Zpráva byla vytvořena před 23 minutami, v 04:50 UTC
Bezvětří
Teplota 7°C
Vlhkost vzduchu 87%
Tlak 1016 hPa
Viditelnost 10 km a více
Žádná oblačnost pod 1500 m, nevyskytují se cumulonimby.

METAR: ESNU 220450Z 00000KT CAVOK 07/05 Q1016

Čas: 07:13 (05:13 UTC)

Předpověď počasí

Zpráva byla vytvořena před 2 hodinami a 43 minutami, v 02:30 UTC
Předpověď platná od 22 v 03 UTC do 22 v 12 UTC
Západoseverozápadní vítr 4 kt
Viditelnost 10 km a více
Žádná oblačnost pod 1500 m, nevyskytují se cumulonimby.
Změna
od 22 v 08 UTC do 22 v 10 UTC
Jihojihozápadní vítr 14 kt

TAF: ESNU 220230Z 2203/2212 30004KT CAVOK BECMG 2208/2210 20014KT

Stav a předpovědi počasí z více než 4 000 letišť (zprávy METAR a TAF).

Červené a žluté tečky na mapě představují dostupné meteorologické stanice.

Když kurzor umístíte na tečku, zobrazí se název stanice.

Pak kliknutím zobrazíte stav a předpověď počasí.

Chcete-li změnit mapu, kliknutím na zelené tlačítko se znaménkem +mapu přiblížíte, kliknutím na zelené tlačítko se znaménkem – mapu oddálíte a kliknutím na zelené šipky přejdete na sousední mapy.


METAR-TAF: